Terminal Aerodrome Forecast
Issued by NWS Billings, MT

Home | Current Version | Previous Version | Graphics & Text | Print | Product List | Glossary Off
Versions: 1 2 3 4 5 6 7 8 9 10 11 12 13 14 15 16 17 18 19 20 21 22 23 24 25 26 27 28 29 30

227
FTUS45 KBYZ 300538
TAFMLS
TAF
KMLS 300538Z 3006/0106 14008KT P6SM SCT100
     FM300900 18006KT P6SM VCSH SCT100
     FM301200 23008KT P6SM SCT100
     FM010000 14008KT P6SM FEW150=

USA.gov is the U.S. government's official web portal to all federal, state and local government web resources and services.